createdAt,value
2023-04-20T00:00:17.860Z,5.37
2023-04-20T00:04:18.565Z,5.64
2023-04-20T00:06:48.060Z,5.33
2023-04-20T00:09:17.132Z,5.24
2023-04-20T00:11:46.345Z,5.24
2023-04-20T00:14:23.247Z,5.29
2023-04-20T00:16:53.894Z,5.57
2023-04-20T00:19:26.682Z,5.64
2023-04-20T00:21:55.660Z,5.59
2023-04-20T00:24:27.401Z,5.88
2023-04-20T00:26:58.933Z,5.69
2023-04-20T00:29:27.331Z,5.32
2023-04-20T00:31:58.474Z,5.33
2023-04-20T00:34:26.991Z,5.51
2023-04-20T00:36:59.239Z,5.55
2023-04-20T00:39:27.880Z,5.42
2023-04-20T00:41:56.084Z,5.32
2023-04-20T00:44:23.918Z,5.56
2023-04-20T00:46:55.198Z,5.69
2023-04-20T00:49:27.255Z,5.62
2023-04-20T00:51:54.858Z,5.24
2023-04-20T00:54:23.029Z,5.34
2023-04-20T00:56:52.523Z,5.36
2023-04-20T00:59:21.667Z,5.41
2023-04-20T01:01:51.879Z,5.48
2023-04-20T01:04:19.837Z,5.44
2023-04-20T01:06:47.531Z,5.28
2023-04-20T01:09:15.456Z,5.47
2023-04-20T01:11:43.060Z,5.65
2023-04-20T01:14:10.830Z,5.48
2023-04-20T01:16:38.479Z,5.29
2023-04-20T01:19:05.880Z,5.04
2023-04-20T01:21:34.091Z,4.97
2023-04-20T01:24:01.472Z,5.00
2023-04-20T01:26:29.276Z,4.81
2023-04-20T01:28:57.138Z,4.31
2023-04-20T01:31:24.713Z,4.22
2023-04-20T01:33:52.095Z,4.70
2023-04-20T01:36:21.814Z,5.19
2023-04-20T01:38:51.378Z,5.36
2023-04-20T01:41:18.785Z,4.99
2023-04-20T01:43:46.212Z,4.85
2023-04-20T01:46:13.968Z,4.75
2023-04-20T01:48:42.174Z,4.82
2023-04-20T01:51:10.169Z,4.52
2023-04-20T01:53:37.350Z,4.57
2023-04-20T01:56:05.123Z,4.26
2023-04-20T01:58:33.780Z,4.23
2023-04-20T02:01:04.197Z,4.10
2023-04-20T02:03:31.867Z,4.54
2023-04-20T02:05:59.602Z,4.20
2023-04-20T02:08:30.792Z,4.36
2023-04-20T02:10:58.511Z,4.13
2023-04-20T02:13:26.779Z,3.88
2023-04-20T02:15:54.734Z,3.81
2023-04-20T02:18:24.509Z,4.27
2023-04-20T02:20:52.991Z,4.78
2023-04-20T02:23:20.609Z,4.54
2023-04-20T02:25:48.539Z,4.41
2023-04-20T02:28:16.071Z,4.46
2023-04-20T02:30:43.984Z,4.36
2023-04-20T02:33:14.839Z,4.34
2023-04-20T02:35:42.746Z,4.57
2023-04-20T02:38:15.888Z,3.76
2023-04-20T02:40:43.116Z,4.13
2023-04-20T02:43:11.114Z,4.21
2023-04-20T02:45:42.100Z,3.94
2023-04-20T02:48:11.252Z,3.82
2023-04-20T02:50:40.386Z,3.93
2023-04-20T02:53:26.314Z,4.17
2023-04-20T02:56:08.468Z,4.23
2023-04-20T02:58:52.194Z,4.24
2023-04-20T03:01:23.245Z,4.27
2023-04-20T03:03:58.838Z,4.58
2023-04-20T03:06:27.986Z,4.40
2023-04-20T03:08:57.846Z,4.18
2023-04-20T03:11:51.626Z,4.14
2023-04-20T03:14:35.471Z,4.15
2023-04-20T03:17:03.387Z,4.32
2023-04-20T03:19:30.873Z,4.10
2023-04-20T03:21:58.880Z,3.72
2023-04-20T03:24:35.683Z,3.67
2023-04-20T03:27:12.780Z,3.27
2023-04-20T03:29:50.648Z,3.23
2023-04-20T03:32:18.696Z,3.30
2023-04-20T03:34:46.166Z,3.13
2023-04-20T03:37:15.350Z,3.06
2023-04-20T03:39:42.655Z,3.11
2023-04-20T03:42:10.010Z,3.17
2023-04-20T03:44:37.368Z,2.85
2023-04-20T03:47:06.442Z,3.02
2023-04-20T03:49:35.132Z,3.17
2023-04-20T03:52:02.557Z,3.12
2023-04-20T03:54:29.951Z,2.95
2023-04-20T03:56:58.501Z,3.06
2023-04-20T03:59:28.049Z,3.25
2023-04-20T04:01:56.723Z,3.73
2023-04-20T04:04:24.757Z,3.52
2023-04-20T04:06:52.654Z,3.89
2023-04-20T04:09:20.911Z,3.70
2023-04-20T04:11:48.688Z,3.67
2023-04-20T04:14:16.188Z,3.84
2023-04-20T04:16:47.873Z,4.04
2023-04-20T04:19:18.048Z,3.87
2023-04-20T04:21:46.250Z,3.78
2023-04-20T04:24:21.686Z,3.75
2023-04-20T04:27:05.335Z,3.59
2023-04-20T04:29:38.686Z,3.88
2023-04-20T04:32:11.862Z,4.01
2023-04-20T04:34:40.673Z,3.57
2023-04-20T04:37:08.251Z,3.78
2023-04-20T04:39:45.106Z,3.80
2023-04-20T04:42:24.871Z,3.85
2023-04-20T04:44:54.884Z,4.04
2023-04-20T04:47:29.875Z,4.02
2023-04-20T04:49:57.670Z,4.30
2023-04-20T04:52:25.184Z,4.50
2023-04-20T04:54:52.896Z,4.58
2023-04-20T04:57:20.749Z,4.45
2023-04-20T04:59:48.350Z,4.16
2023-04-20T05:02:16.073Z,4.30
2023-04-20T05:04:44.093Z,4.24
2023-04-20T05:07:12.095Z,5.23
2023-04-20T05:09:40.199Z,6.57
2023-04-20T05:12:08.119Z,8.42
2023-04-20T05:14:35.721Z,9.37
2023-04-20T05:17:03.318Z,10.52
2023-04-20T05:19:30.748Z,11.65
2023-04-20T05:21:58.192Z,12.64
2023-04-20T05:24:25.863Z,13.20
2023-04-20T05:26:53.663Z,14.06
2023-04-20T05:29:21.610Z,14.72
2023-04-20T05:31:49.072Z,15.27
2023-04-20T05:34:16.905Z,16.16
2023-04-20T05:36:44.330Z,16.06
2023-04-20T05:39:11.837Z,17.51
2023-04-20T05:41:39.764Z,18.26
2023-04-20T05:44:07.518Z,19.11
2023-04-20T05:46:35.303Z,19.81
2023-04-20T05:49:02.714Z,20.35
2023-04-20T05:51:33.918Z,20.87
2023-04-20T05:54:01.822Z,22.05
2023-04-20T05:56:29.143Z,21.84
2023-04-20T05:58:57.263Z,21.38
2023-04-20T06:01:24.625Z,22.52
2023-04-20T06:03:52.478Z,22.71
2023-04-20T06:06:20.449Z,23.04
2023-04-20T06:08:48.734Z,22.06
2023-04-20T06:11:18.842Z,22.46
2023-04-20T06:13:47.612Z,23.32
2023-04-20T06:16:15.382Z,23.02
2023-04-20T06:18:43.889Z,23.89
2023-04-20T06:21:11.748Z,24.94
2023-04-20T06:23:39.083Z,25.50
2023-04-20T06:26:10.579Z,25.96
2023-04-20T06:28:38.769Z,25.40
2023-04-20T06:31:09.441Z,24.35
2023-04-20T06:33:37.749Z,25.76
2023-04-20T06:36:08.803Z,26.09
2023-04-20T06:38:36.907Z,27.26
2023-04-20T06:41:05.027Z,27.95
2023-04-20T06:43:32.814Z,28.55
2023-04-20T06:46:05.798Z,26.26
2023-04-20T06:48:34.671Z,26.38
2023-04-20T06:51:02.248Z,27.36
2023-04-20T06:53:29.814Z,27.72
2023-04-20T06:55:57.688Z,27.21
2023-04-20T06:58:25.032Z,25.81
2023-04-20T07:00:52.645Z,23.67
2023-04-20T07:03:20.587Z,22.04
2023-04-20T07:05:48.842Z,20.79
2023-04-20T07:08:16.951Z,20.45
2023-04-20T07:10:44.456Z,20.30
2023-04-20T07:13:12.407Z,20.38
2023-04-20T07:15:39.965Z,19.93
2023-04-20T07:18:07.425Z,20.68
2023-04-20T07:20:35.141Z,20.88
2023-04-20T07:23:02.576Z,19.70
2023-04-20T07:25:32.829Z,19.56
2023-04-20T07:28:07.430Z,19.08
2023-04-20T07:30:37.367Z,17.81
2023-04-20T07:33:05.274Z,17.70
2023-04-20T07:35:32.920Z,16.72
2023-04-20T07:38:00.689Z,16.73
2023-04-20T07:40:28.009Z,16.13
2023-04-20T07:42:55.980Z,16.21
2023-04-20T07:45:24.258Z,15.90
2023-04-20T07:47:52.813Z,15.65
2023-04-20T07:50:20.636Z,15.09
2023-04-20T07:52:48.261Z,14.82
2023-04-20T07:55:17.343Z,14.39
2023-04-20T07:57:45.306Z,14.27
2023-04-20T08:00:14.320Z,14.01
2023-04-20T08:02:42.634Z,14.08
2023-04-20T08:05:11.279Z,13.89
2023-04-20T08:07:40.244Z,13.72
2023-04-20T08:10:10.551Z,13.21
2023-04-20T08:12:40.312Z,13.18
2023-04-20T08:15:09.426Z,13.43
2023-04-20T08:17:37.243Z,13.53
2023-04-20T08:20:06.501Z,13.16
2023-04-20T08:22:34.347Z,13.15
2023-04-20T08:25:02.889Z,13.25
2023-04-20T08:27:32.307Z,13.27
2023-04-20T08:29:59.970Z,13.58
2023-04-20T08:32:27.741Z,13.68
2023-04-20T08:34:57.220Z,13.45
2023-04-20T08:37:26.034Z,12.62
2023-04-20T08:39:53.713Z,12.31
2023-04-20T08:42:21.354Z,11.97
2023-04-20T08:44:48.986Z,11.93
2023-04-20T08:47:16.627Z,12.20
2023-04-20T08:49:45.770Z,12.09
2023-04-20T08:52:13.376Z,11.93
2023-04-20T08:54:55.347Z,11.64
2023-04-20T08:57:24.241Z,11.65
2023-04-20T08:59:51.906Z,11.72
2023-04-20T09:02:20.061Z,11.84
2023-04-20T09:04:49.434Z,11.94
2023-04-20T09:07:22.071Z,11.97
2023-04-20T09:09:57.657Z,12.13
2023-04-20T09:12:25.976Z,12.31
2023-04-20T09:14:54.120Z,12.40
2023-04-20T09:17:36.133Z,12.63
2023-04-20T09:20:08.551Z,12.42
2023-04-20T09:22:38.793Z,12.92
2023-04-20T09:25:20.103Z,12.85
2023-04-20T09:28:01.964Z,13.10
2023-04-20T09:30:49.147Z,13.12
2023-04-20T09:33:16.756Z,12.95
2023-04-20T09:35:45.840Z,12.92
2023-04-20T09:38:17.124Z,12.86
2023-04-20T09:40:44.665Z,12.81
2023-04-20T09:43:24.735Z,12.99
2023-04-20T09:45:59.551Z,13.03
2023-04-20T09:48:35.473Z,12.85
2023-04-20T09:51:03.753Z,12.76
2023-04-20T09:53:32.224Z,12.00
2023-04-20T09:56:02.539Z,12.22
2023-04-20T09:58:34.933Z,12.02
2023-04-20T10:01:02.630Z,12.82
2023-04-20T10:03:30.056Z,12.94
2023-04-20T10:05:57.821Z,12.37
2023-04-20T10:08:25.475Z,11.53
2023-04-20T10:10:52.809Z,11.38
2023-04-20T10:13:21.990Z,11.80
2023-04-20T10:15:49.713Z,12.05
2023-04-20T10:18:25.065Z,11.92
2023-04-20T10:21:09.409Z,11.91
2023-04-20T10:23:52.386Z,11.87
2023-04-20T10:26:20.785Z,11.89
2023-04-20T10:28:48.377Z,12.28
2023-04-20T10:31:17.101Z,12.48
2023-04-20T10:33:56.578Z,12.29
2023-04-20T10:36:39.273Z,12.38
2023-04-20T10:39:23.062Z,11.91
2023-04-20T10:42:04.301Z,11.92
2023-04-20T10:44:33.211Z,11.62
2023-04-20T10:47:01.295Z,11.18
2023-04-20T10:49:31.719Z,10.97
2023-04-20T10:51:59.943Z,10.92
2023-04-20T10:54:37.459Z,10.69
2023-04-20T10:57:06.825Z,11.43
2023-04-20T10:59:38.922Z,11.36
2023-04-20T11:02:11.227Z,11.60
2023-04-20T11:04:38.739Z,11.70
2023-04-20T11:07:16.239Z,11.84
2023-04-20T11:09:55.399Z,12.78
2023-04-20T11:12:42.956Z,13.34
2023-04-20T11:15:13.672Z,13.40
2023-04-20T11:17:41.403Z,13.65
2023-04-20T11:20:18.699Z,14.07
2023-04-20T11:23:00.055Z,14.46
2023-04-20T11:25:28.094Z,14.69
2023-04-20T11:28:09.213Z,14.03
2023-04-20T11:30:42.327Z,13.88
2023-04-20T11:33:14.310Z,13.90
2023-04-20T11:35:44.681Z,13.21
2023-04-20T11:38:12.150Z,13.13
2023-04-20T11:40:39.727Z,13.62
2023-04-20T11:43:07.373Z,13.71
2023-04-20T11:45:36.359Z,13.02
2023-04-20T11:48:06.897Z,12.80
2023-04-20T11:50:36.655Z,13.09
2023-04-20T11:53:07.141Z,12.76
2023-04-20T11:55:34.968Z,12.60
2023-04-20T11:58:04.116Z,12.64
2023-04-20T12:00:31.909Z,12.15
2023-04-20T12:03:00.156Z,12.24
2023-04-20T12:05:29.113Z,12.31
2023-04-20T12:07:56.710Z,12.40
2023-04-20T12:10:24.734Z,12.65
2023-04-20T12:12:53.492Z,12.90
2023-04-20T12:15:29.931Z,12.90
2023-04-20T12:17:57.971Z,12.74
2023-04-20T12:20:25.913Z,12.38
2023-04-20T12:22:53.529Z,12.81
2023-04-20T12:25:21.039Z,12.58
2023-04-20T12:27:50.023Z,13.20
2023-04-20T12:30:18.127Z,12.97
2023-04-20T12:32:45.652Z,13.30
2023-04-20T12:35:13.291Z,13.30
2023-04-20T12:37:41.523Z,13.45
2023-04-20T12:40:10.158Z,13.90
2023-04-20T12:42:37.590Z,14.09
2023-04-20T12:45:05.676Z,12.81
2023-04-20T12:47:33.446Z,12.59
2023-04-20T12:50:01.373Z,12.26
2023-04-20T12:52:29.469Z,12.11
2023-04-20T12:54:57.331Z,12.63
2023-04-20T12:57:25.031Z,12.99
2023-04-20T12:59:52.589Z,13.15
2023-04-20T13:02:21.012Z,12.79
2023-04-20T13:04:49.310Z,12.53
2023-04-20T13:07:17.348Z,12.66
2023-04-20T13:09:44.941Z,12.35
2023-04-20T13:12:13.962Z,12.11
2023-04-20T13:14:41.329Z,11.89
2023-04-20T13:17:08.996Z,11.51
2023-04-20T13:19:36.574Z,11.39
2023-04-20T13:22:03.947Z,11.45
2023-04-20T13:24:31.751Z,11.81
2023-04-20T13:26:59.886Z,11.92
2023-04-20T13:29:28.469Z,12.27
2023-04-20T13:31:55.896Z,12.41
2023-04-20T13:34:24.129Z,12.04
2023-04-20T13:36:52.288Z,11.60
2023-04-20T13:39:21.077Z,11.72
2023-04-20T13:41:52.142Z,12.38
2023-04-20T13:44:19.797Z,12.95
2023-04-20T13:46:48.572Z,13.17
2023-04-20T13:49:16.980Z,13.16
2023-04-20T13:51:44.648Z,12.59
2023-04-20T13:54:12.803Z,13.03
2023-04-20T13:56:40.525Z,12.84
2023-04-20T13:59:08.099Z,13.20
2023-04-20T14:01:36.061Z,13.03
2023-04-20T14:04:05.055Z,12.91
2023-04-20T14:06:33.280Z,13.17
2023-04-20T14:09:01.015Z,12.56
2023-04-20T14:11:28.949Z,12.54
2023-04-20T14:13:56.900Z,12.78
2023-04-20T14:16:26.257Z,12.76
2023-04-20T14:18:54.402Z,12.79
2023-04-20T14:21:21.899Z,12.26
2023-04-20T14:23:53.453Z,12.20
2023-04-20T14:26:21.346Z,11.92
2023-04-20T14:28:49.669Z,12.24
2023-04-20T14:31:17.266Z,12.52
2023-04-20T14:33:44.922Z,12.49
2023-04-20T14:36:13.060Z,12.16
2023-04-20T14:38:41.072Z,12.17
2023-04-20T14:41:08.893Z,12.27
2023-04-20T14:43:36.897Z,12.19
2023-04-20T14:46:07.774Z,12.13
2023-04-20T14:48:38.481Z,11.85
2023-04-20T14:51:07.265Z,11.96
2023-04-20T14:53:35.718Z,11.75
2023-04-20T14:56:03.739Z,11.64
2023-04-20T14:58:32.289Z,11.93
2023-04-20T15:01:02.344Z,11.59
2023-04-20T15:03:30.956Z,11.71
2023-04-20T15:06:02.486Z,11.53
2023-04-20T15:08:31.008Z,11.68
2023-04-20T15:10:58.565Z,11.30
2023-04-20T15:13:27.047Z,11.20
2023-04-20T15:15:55.428Z,11.25
2023-04-20T15:18:26.145Z,10.83
2023-04-20T15:20:53.808Z,10.48
2023-04-20T15:23:21.317Z,10.53
2023-04-20T15:25:48.675Z,10.93
2023-04-20T15:28:16.775Z,10.69
2023-04-20T15:30:44.571Z,10.28
2023-04-20T15:33:12.409Z,10.71
2023-04-20T15:35:41.752Z,10.90
2023-04-20T15:38:10.093Z,10.73
2023-04-20T15:40:38.932Z,10.56
2023-04-20T15:43:07.067Z,10.72
2023-04-20T15:45:37.559Z,10.85
2023-04-20T15:48:05.364Z,11.14
2023-04-20T15:50:32.859Z,10.61
2023-04-20T15:53:00.332Z,10.68
2023-04-20T15:55:27.930Z,11.10
2023-04-20T15:57:58.228Z,10.86
2023-04-20T16:00:25.874Z,10.71
2023-04-20T16:02:54.262Z,10.65
2023-04-20T16:05:27.361Z,10.79
2023-04-20T16:07:55.267Z,10.50
2023-04-20T16:10:23.783Z,10.66
2023-04-20T16:12:54.690Z,11.22
2023-04-20T16:15:22.910Z,10.80
2023-04-20T16:17:50.403Z,10.57
2023-04-20T16:20:18.727Z,10.72
2023-04-20T16:22:46.447Z,10.40
2023-04-20T16:25:23.327Z,10.26
2023-04-20T16:27:51.942Z,9.93
2023-04-20T16:30:19.317Z,9.91
2023-04-20T16:32:46.965Z,9.93
2023-04-20T16:35:14.480Z,10.08
2023-04-20T16:37:42.121Z,10.21
2023-04-20T16:40:10.348Z,10.16
2023-04-20T16:42:38.089Z,10.31
2023-04-20T16:45:07.652Z,10.12
2023-04-20T16:47:35.394Z,10.59
2023-04-20T16:50:07.239Z,10.69
2023-04-20T16:52:35.496Z,10.88
2023-04-20T16:55:03.606Z,11.09
2023-04-20T16:57:32.038Z,11.19
2023-04-20T16:59:59.866Z,11.08
2023-04-20T17:02:33.044Z,11.18
2023-04-20T17:05:01.166Z,11.17
2023-04-20T17:07:29.944Z,11.05
2023-04-20T17:09:58.085Z,10.88
2023-04-20T17:12:26.257Z,10.85
2023-04-20T17:14:55.543Z,11.14
2023-04-20T17:17:23.163Z,10.94
2023-04-20T17:19:50.520Z,11.12
2023-04-20T17:22:18.019Z,11.15
2023-04-20T17:24:45.649Z,11.40
2023-04-20T17:27:13.433Z,11.04
2023-04-20T17:29:43.401Z,10.87
2023-04-20T17:32:12.046Z,10.90
2023-04-20T17:34:41.192Z,10.65
2023-04-20T17:37:09.041Z,10.75
2023-04-20T17:39:37.474Z,11.19
2023-04-20T17:42:11.262Z,10.96
2023-04-20T17:44:39.515Z,10.84
2023-04-20T17:47:09.705Z,10.79
2023-04-20T17:49:37.233Z,10.56
2023-04-20T17:52:05.371Z,10.64
2023-04-20T17:54:35.775Z,11.16
2023-04-20T17:57:03.883Z,11.08
2023-04-20T17:59:31.901Z,10.75
2023-04-20T18:01:59.397Z,10.99
2023-04-20T18:04:27.251Z,11.17
2023-04-20T18:06:55.139Z,10.82
2023-04-20T18:09:22.679Z,10.85
2023-04-20T18:11:49.973Z,10.83
2023-04-20T18:14:17.763Z,11.05
2023-04-20T18:16:45.425Z,11.01
2023-04-20T18:19:12.996Z,11.50
2023-04-20T18:21:43.608Z,11.51
2023-04-20T18:24:11.041Z,11.11
2023-04-20T18:26:38.579Z,11.02
2023-04-20T18:29:06.137Z,10.94
2023-04-20T18:31:34.080Z,11.11
2023-04-20T18:34:01.461Z,11.16
2023-04-20T18:36:40.588Z,11.19
2023-04-20T18:39:26.697Z,11.35
2023-04-20T18:41:54.027Z,11.31
2023-04-20T18:44:24.086Z,11.30
2023-04-20T18:46:51.434Z,11.44
2023-04-20T18:49:18.712Z,11.48
2023-04-20T18:51:46.045Z,11.50
2023-04-20T18:54:13.462Z,11.39
2023-04-20T18:56:40.794Z,11.06
2023-04-20T18:59:09.403Z,10.92
2023-04-20T19:01:40.783Z,10.77
2023-04-20T19:04:09.168Z,10.75
2023-04-20T19:06:36.752Z,10.85
2023-04-20T19:09:06.535Z,11.06
2023-04-20T19:11:35.468Z,11.13
2023-04-20T19:14:03.076Z,11.26
2023-04-20T19:16:32.783Z,11.27
2023-04-20T19:19:01.031Z,10.75
2023-04-20T19:21:28.449Z,10.51
2023-04-20T19:23:56.722Z,10.75
2023-04-20T19:26:24.964Z,10.93
2023-04-20T19:28:52.607Z,10.97
2023-04-20T19:31:20.200Z,10.93
2023-04-20T19:33:47.474Z,10.89
2023-04-20T19:36:14.874Z,11.17
2023-04-20T19:38:42.314Z,11.26
2023-04-20T19:41:09.754Z,11.20
2023-04-20T19:43:37.590Z,11.06
2023-04-20T19:46:09.945Z,11.15
2023-04-20T19:48:37.744Z,11.26
2023-04-20T19:51:06.820Z,11.27
2023-04-20T19:53:59.201Z,11.26
2023-04-20T19:56:26.897Z,11.50
2023-04-20T19:58:54.232Z,11.44
2023-04-20T20:01:21.751Z,11.46
2023-04-20T20:03:49.605Z,11.51
2023-04-20T20:06:18.492Z,11.48
2023-04-20T20:08:46.366Z,11.17
2023-04-20T20:11:13.698Z,11.09
2023-04-20T20:13:41.351Z,11.78
2023-04-20T20:16:10.350Z,11.30
2023-04-20T20:18:38.307Z,11.08
2023-04-20T20:21:05.598Z,10.79
2023-04-20T20:23:33.075Z,10.94
2023-04-20T20:26:00.602Z,11.20
2023-04-20T20:28:29.009Z,11.32
2023-04-20T20:30:56.541Z,11.46
2023-04-20T20:34:40.925Z,11.51
2023-04-20T20:37:10.356Z,11.63
2023-04-20T20:40:53.792Z,11.12
2023-04-20T20:44:40.213Z,11.17
2023-04-20T20:48:23.164Z,11.22
2023-04-20T20:52:07.241Z,11.11
2023-04-20T20:54:35.163Z,10.96
2023-04-20T20:58:18.136Z,10.57
2023-04-20T21:02:02.232Z,11.02
2023-04-20T21:04:30.194Z,11.06
2023-04-20T21:06:59.822Z,10.42
2023-04-20T21:10:42.486Z,10.53
2023-04-20T21:14:25.721Z,10.51
2023-04-20T21:18:08.629Z,10.83
2023-04-20T21:21:51.584Z,10.69
2023-04-20T21:24:19.220Z,10.66
2023-04-20T21:26:46.738Z,10.72
2023-04-20T21:30:05.373Z,10.63
2023-04-20T21:32:32.734Z,10.85
2023-04-20T21:35:00.414Z,11.21
2023-04-20T21:37:27.999Z,10.40
2023-04-20T21:39:55.535Z,10.77
2023-04-20T21:42:22.792Z,10.93
2023-04-20T21:44:50.784Z,10.85
2023-04-20T21:47:21.519Z,10.88
2023-04-20T21:49:49.140Z,10.86
2023-04-20T21:52:16.560Z,10.52
2023-04-20T21:54:44.342Z,10.92
2023-04-20T21:57:12.316Z,11.22
2023-04-20T21:59:39.608Z,10.98
2023-04-20T22:02:09.664Z,10.97
2023-04-20T22:04:37.565Z,11.10
2023-04-20T22:07:05.112Z,11.08
2023-04-20T22:09:32.583Z,11.22
2023-04-20T22:12:05.751Z,11.32
2023-04-20T22:14:33.486Z,10.81
2023-04-20T22:17:01.727Z,10.92
2023-04-20T22:19:29.307Z,10.95
2023-04-20T22:21:56.514Z,11.48
2023-04-20T22:24:24.251Z,11.67
2023-04-20T22:26:51.822Z,11.41
2023-04-20T22:29:19.628Z,10.85
2023-04-20T22:31:47.343Z,10.68
2023-04-20T22:34:14.932Z,10.72
2023-04-20T22:36:42.487Z,10.68
2023-04-20T22:39:10.213Z,11.12
2023-04-20T22:41:37.510Z,11.41
2023-04-20T22:44:04.818Z,11.27
2023-04-20T22:46:32.784Z,11.21
2023-04-20T22:49:00.606Z,11.30
2023-04-20T22:51:46.968Z,11.15
2023-04-20T22:54:15.085Z,11.07
2023-04-20T22:56:42.912Z,10.67
2023-04-20T22:59:10.913Z,10.59
2023-04-20T23:01:38.295Z,10.52
2023-04-20T23:04:05.902Z,10.72
2023-04-20T23:06:34.557Z,10.85
2023-04-20T23:09:05.805Z,10.70
2023-04-20T23:11:38.782Z,10.64
2023-04-20T23:14:08.389Z,10.76
2023-04-20T23:16:36.136Z,10.83
2023-04-20T23:19:03.453Z,10.77
2023-04-20T23:21:31.222Z,10.61
2023-04-20T23:23:58.602Z,10.61
2023-04-20T23:26:26.131Z,10.54
2023-04-20T23:28:54.152Z,10.44
2023-04-20T23:31:21.479Z,9.97
2023-04-20T23:33:49.235Z,9.99
2023-04-20T23:36:17.006Z,10.13
2023-04-20T23:38:44.600Z,10.29
2023-04-20T23:41:15.113Z,10.43
2023-04-20T23:43:42.804Z,9.84
2023-04-20T23:46:10.871Z,9.72
2023-04-20T23:48:38.207Z,10.20
2023-04-20T23:51:05.782Z,9.93
2023-04-20T23:53:37.870Z,9.77
2023-04-20T23:56:06.654Z,9.83
2023-04-20T23:58:37.131Z,9.89
